Time;durP1;ratioP1;P1;durP2;ratioP2;P2;SDS_P1;SDS_P2;PMS_P1;PMS_P2;Temp;Humidity;BMP_temperature;BMP_pressure;BME280_temperature;BME280_humidity;BME280_pressure;Samples;Min_cycle;Max_cycle;Signal;HPM_P1;HPM_P2
2022/01/20 00:01:21;;;;;;;15.90;2.57;;;;;;;3.67;80.21;100994.84;5084115;28;20337;-71
2022/01/20 00:03:48;;;;;;;14.00;2.07;;;;;;;3.66;79.38;101008.06;5082243;28;20277;-71
2022/01/20 00:07:01;;;;;;;11.63;2.37;;;;;;;3.61;78.86;101009.94;5083284;28;20204;-71
2022/01/20 00:09:31;;;;;;;13.27;2.67;;;;;;;3.58;78.16;101004.78;5081069;28;20229;-72
2022/01/20 00:23:30;;;;;;;9.10;2.10;;;;;;;3.56;77.74;101006.59;5080852;28;20212;-71
2022/01/20 00:26:02;;;;;;;15.27;2.87;;;;;;;3.53;77.35;100998.78;5083145;28;20216;-71
2022/01/20 00:28:41;;;;;;;9.80;1.80;;;;;;;3.51;76.80;100998.81;5082770;28;20574;-71
2022/01/20 00:31:25;;;;;;;13.13;2.60;;;;;;;3.50;76.65;100999.72;5074394;28;20209;-71
2022/01/20 00:33:56;;;;;;;13.73;2.77;;;;;;;3.51;76.40;100990.94;5083230;28;20220;-71
2022/01/20 00:39:07;;;;;;;13.27;2.97;;;;;;;3.49;76.18;100996.25;5068647;28;20732;-71
2022/01/20 00:41:33;;;;;;;10.50;2.27;;;;;;;3.48;76.66;100994.50;5086331;28;20208;-72
2022/01/20 00:44:01;;;;;;;15.30;2.47;;;;;;;3.48;76.32;100999.78;5086122;28;20589;-71
2022/01/20 00:46:28;;;;;;;19.50;3.57;;;;;;;3.49;76.79;101000.63;5082681;28;20212;-71
2022/01/20 00:48:55;;;;;;;16.20;2.80;;;;;;;3.48;76.60;100997.13;5072080;28;20314;-71
2022/01/20 00:51:23;;;;;;;11.27;2.87;;;;;;;3.49;76.74;101011.16;5079725;28;20205;-71
2022/01/20 00:53:51;;;;;;;14.43;2.23;;;;;;;3.48;77.57;100994.50;5085637;28;20231;-71
2022/01/20 00:56:17;;;;;;;16.57;3.43;;;;;;;3.47;77.21;100999.81;5075715;28;20212;-71
2022/01/20 00:58:44;;;;;;;15.20;3.50;;;;;;;3.46;77.88;101006.84;5074558;28;20212;-71
2022/01/20 01:01:12;;;;;;;14.53;2.70;;;;;;;3.47;77.84;101010.34;5075546;28;20299;-71
2022/01/20 01:03:38;;;;;;;10.57;3.20;;;;;;;3.45;78.02;101014.78;5086934;28;20211;-72
2022/01/20 01:06:16;;;;;;;15.93;3.40;;;;;;;3.43;78.34;101017.47;5080448;28;20208;-71
2022/01/20 01:08:42;;;;;;;19.07;3.30;;;;;;;3.44;79.19;101021.81;5086276;28;20218;-71
2022/01/20 01:11:09;;;;;;;18.40;3.30;;;;;;;3.42;79.04;101012.25;5090969;22;20255;-71
2022/01/20 01:13:36;;;;;;;15.27;2.83;;;;;;;3.39;79.32;101007.09;5049299;28;20253;-71
2022/01/20 01:16:04;;;;;;;16.63;3.73;;;;;;;3.37;79.57;101008.91;5053347;28;20721;-72
2022/01/20 01:21:28;;;;;;;16.07;3.10;;;;;;;3.32;80.17;100995.84;5049861;28;20301;-72
2022/01/20 01:23:55;;;;;;;11.07;2.90;;;;;;;3.30;80.45;101000.28;5050138;28;20201;-71
2022/01/20 01:26:25;;;;;;;14.80;2.80;;;;;;;3.29;80.55;101001.19;5051394;28;20215;-69
2022/01/20 01:28:51;;;;;;;13.83;3.40;;;;;;;3.29;79.97;100997.69;5050924;28;20220;-69
2022/01/20 01:31:31;;;;;;;13.63;3.73;;;;;;;3.25;80.18;100996.91;5051765;28;20230;-69
2022/01/20 01:34:03;;;;;;;23.33;3.90;;;;;;;3.25;80.43;101001.31;5045872;28;20592;-69
2022/01/20 01:36:43;;;;;;;13.77;3.20;;;;;;;3.22;80.71;101006.69;5039807;28;20296;-69
2022/01/20 01:39:10;;;;;;;23.20;3.60;;;;;;;3.20;80.69;101012.00;5040607;28;20293;-70
2022/01/20 01:41:37;;;;;;;14.30;3.20;;;;;;;3.18;80.88;101000.66;5050129;28;20237;-70
2022/01/20 01:44:05;;;;;;;16.50;3.37;;;;;;;3.17;81.14;100996.28;5041606;28;20202;-70
2022/01/20 01:46:32;;;;;;;16.70;2.93;;;;;;;3.15;80.91;100992.81;5044804;28;20746;-69
2022/01/20 01:49:00;;;;;;;19.17;2.47;;;;;;;3.14;81.75;100993.72;5032649;28;20225;-70
2022/01/20 01:51:27;;;;;;;12.53;3.27;;;;;;;3.12;81.39;100995.53;5042050;28;20226;-71
2022/01/20 01:53:54;;;;;;;19.07;3.00;;;;;;;3.09;81.09;100996.47;5048230;28;20225;-70
2022/01/20 01:56:21;;;;;;;14.87;3.03;;;;;;;3.08;81.19;100993.88;5046076;28;20212;-69
2022/01/20 01:58:48;;;;;;;17.87;2.87;;;;;;;3.08;81.57;100999.16;5052154;28;20205;-69
2022/01/20 02:01:15;;;;;;;18.73;2.90;;;;;;;3.07;82.54;101002.69;5048604;28;20693;-69
2022/01/20 02:03:45;;;;;;;12.67;2.43;;;;;;;3.07;82.70;101000.91;5051968;28;20570;-70
2022/01/20 02:53:18;;;;;;;19.67;2.70;;;;;;;3.21;83.89;100953.19;5039924;28;20817;-68
2022/01/20 02:55:46;;;;;;;8.53;1.87;;;;;;;3.21;83.42;100958.44;5037453;28;20215;-69
2022/01/20 02:58:13;;;;;;;8.37;1.87;;;;;;;3.19;83.67;100949.72;5039071;28;20210;-69
2022/01/20 03:00:40;;;;;;;11.57;2.23;;;;;;;3.19;83.69;100946.25;5038906;28;20206;-69
2022/01/20 03:03:07;;;;;;;13.63;1.90;;;;;;;3.17;83.95;100946.28;5046975;28;20211;-69
2022/01/20 03:05:35;;;;;;;6.27;1.33;;;;;;;3.16;84.20;100939.28;5043796;28;20206;-69
2022/01/20 03:08:02;;;;;;;6.33;1.43;;;;;;;3.11;84.06;100952.56;5044284;28;20210;-70
2022/01/20 03:10:30;;;;;;;5.50;1.27;;;;;;;3.09;83.47;100959.63;5049186;28;20683;-70
2022/01/20 03:12:57;;;;;;;5.00;1.50;;;;;;;3.07;83.97;100952.69;5052040;28;20601;-70
2022/01/20 03:15:24;;;;;;;8.17;1.23;;;;;;;3.04;84.16;100945.75;5034820;28;20206;-70
2022/01/20 03:17:51;;;;;;;6.50;1.73;;;;;;;3.02;84.73;100938.81;5044541;28;20202;-69
2022/01/20 03:20:18;;;;;;;6.43;1.63;;;;;;;3.00;83.87;100938.00;5042839;28;20670;-69
2022/01/20 03:22:44;;;;;;;7.57;1.60;;;;;;;2.99;84.20;100937.13;5052335;28;20225;-69
2022/01/20 03:25:12;;;;;;;7.33;1.97;;;;;;;2.98;84.39;100929.28;5047899;28;20213;-70
2022/01/20 03:27:40;;;;;;;5.60;1.60;;;;;;;2.98;85.04;100942.44;5040016;28;20214;-70
2022/01/20 03:30:08;;;;;;;8.13;2.37;;;;;;;2.99;85.13;100950.28;5044090;28;20206;-71
2022/01/20 03:32:35;;;;;;;7.27;1.60;;;;;;;3.00;85.21;100951.16;5049033;28;20221;-70
2022/01/20 03:35:03;;;;;;;6.50;1.90;;;;;;;2.99;84.52;100950.28;5046906;28;20202;-70
2022/01/20 03:37:30;;;;;;;8.37;1.90;;;;;;;3.00;84.71;100938.84;5043344;28;20198;-70
2022/01/20 03:39:57;;;;;;;6.63;1.77;;;;;;;3.00;86.09;100930.09;5051397;28;20205;-71
2022/01/20 03:42:23;;;;;;;7.70;1.50;;;;;;;3.01;85.29;100919.53;5031802;28;20234;-72
2022/01/20 03:44:52;;;;;;;10.47;1.87;;;;;;;3.02;85.51;100929.16;5031727;28;20655;-71
2022/01/20 03:47:20;;;;;;;4.60;1.20;;;;;;;3.02;85.91;100944.94;5035005;28;20279;-70
2022/01/20 03:49:54;;;;;;;4.13;0.80;;;;;;;3.01;86.23;100940.59;5043499;28;20226;-71
2022/01/20 03:52:21;;;;;;;5.20;0.83;;;;;;;2.99;85.67;100936.25;5039372;28;20230;-70
2022/01/20 03:54:48;;;;;;;6.70;1.07;;;;;;;2.99;85.68;100941.53;5038378;28;20233;-70
2022/01/20 03:57:14;;;;;;;4.50;0.70;;;;;;;2.97;85.98;100948.59;5036194;28;20217;-70
2022/01/20 03:59:41;;;;;;;4.47;0.80;;;;;;;2.97;86.89;100943.34;5044287;28;20210;-71
2022/01/20 04:02:09;;;;;;;2.37;0.97;;;;;;;2.95;86.40;100946.00;5033465;28;20230;-70
2022/01/20 04:04:35;;;;;;;5.27;1.37;;;;;;;2.95;85.98;100958.28;5043935;28;20198;-70
2022/01/20 04:07:03;;;;;;;1.67;0.90;;;;;;;2.94;87.14;100952.16;5038795;28;20202;-71
2022/01/20 04:09:29;;;;;;;3.40;0.77;;;;;;;2.94;87.28;100953.94;5045031;28;20221;-70
2022/01/20 04:11:56;;;;;;;3.33;1.17;;;;;;;2.89;86.99;100946.16;5041650;28;20244;-71
2022/01/20 04:14:24;;;;;;;5.73;0.70;;;;;;;2.89;86.86;100964.56;5048670;28;20707;-70
2022/01/20 04:17:02;;;;;;;1.57;0.50;;;;;;;2.87;87.37;100958.47;5038924;28;20198;-70
2022/01/20 04:19:32;;;;;;;2.47;0.77;;;;;;;2.86;87.45;100961.19;5046202;28;20205;-73
2022/01/20 04:21:59;;;;;;;1.50;0.47;;;;;;;2.85;87.56;100975.25;5038862;28;20246;-71
2022/01/20 04:24:26;;;;;;;9.87;1.00;;;;;;;2.82;87.21;100970.06;5039844;28;20656;-71
2022/01/20 04:26:52;;;;;;;4.30;0.70;;;;;;;2.80;87.84;100975.34;5041136;28;20202;-72
2022/01/20 04:29:19;;;;;;;3.17;0.60;;;;;;;2.78;87.68;100980.66;5032886;28;20204;-70
2022/01/20 04:31:48;;;;;;;3.37;0.80;;;;;;;2.79;88.10;100982.38;5038763;28;20623;-70
2022/01/20 04:34:15;;;;;;;4.63;0.70;;;;;;;2.76;88.47;100985.09;5031965;28;20230;-71
2022/01/20 04:36:45;;;;;;;4.77;0.77;;;;;;;2.76;87.72;100971.94;5033450;28;20209;-70
2022/01/20 04:39:14;;;;;;;4.40;0.70;;;;;;;2.75;87.93;100979.88;5033904;28;20272;-70
2022/01/20 04:41:41;;;;;;;3.50;1.10;;;;;;;2.74;88.40;100986.88;5038795;28;20272;-71
2022/01/20 04:44:13;;;;;;;4.27;0.80;;;;;;;2.70;87.78;100985.22;5039172;28;20198;-70
2022/01/20 04:46:46;;;;;;;3.10;0.70;;;;;;;2.72;87.87;100975.53;5045364;28;20210;-70
2022/01/20 04:57:03;;;;;;;4.90;0.80;;;;;;;2.67;88.09;100992.38;5039816;28;20308;-71
2022/01/20 04:57:30;;;;;;;8.00;1.23;;;;;;;2.58;86.99;101018.88;5036918;28;20279;-70
2022/01/20 04:59:56;;;;;;;6.17;1.03;;;;;;;2.53;86.79;101010.22;5032336;28;20198;-70
2022/01/20 05:02:27;;;;;;;3.03;0.70;;;;;;;2.52;86.68;101013.75;5038689;28;20229;-70
2022/01/20 05:04:54;;;;;;;4.27;1.23;;;;;;;2.52;86.38;101025.13;5041621;28;20686;-70
2022/01/20 05:07:25;;;;;;;3.87;0.90;;;;;;;2.49;86.62;101019.97;5043033;28;20707;-70
2022/01/20 05:09:54;;;;;;;4.70;1.30;;;;;;;2.49;86.38;101041.00;5037571;28;20624;-70
2022/01/20 05:12:26;;;;;;;6.30;1.87;;;;;;;2.44;86.40;101050.75;5047694;28;20242;-70
2022/01/20 05:14:54;;;;;;;4.97;1.07;;;;;;;2.41;86.38;101035.91;5042493;28;20249;-69
2022/01/20 05:17:21;;;;;;;3.43;0.90;;;;;;;2.41;86.11;101035.06;5040727;28;20201;-70
2022/01/20 05:19:47;;;;;;;6.40;1.00;;;;;;;2.42;86.10;101036.78;5041986;28;20210;-70
2022/01/20 05:22:14;;;;;;;4.60;1.20;;;;;;;2.41;86.20;101050.81;5043290;28;20492;-70
2022/01/20 05:24:42;;;;;;;6.43;1.17;;;;;;;2.37;85.75;101051.78;5042364;28;20206;-70
2022/01/20 05:27:08;;;;;;;5.23;1.20;;;;;;;2.38;85.07;101056.16;5046287;28;20578;-71
2022/01/20 05:29:35;;;;;;;5.13;1.37;;;;;;;2.34;85.21;101065.00;5042241;28;20661;-70
2022/01/20 05:32:01;;;;;;;5.57;1.10;;;;;;;2.32;84.82;101064.19;5042845;28;20233;-71
2022/01/20 05:34:28;;;;;;;6.60;1.50;;;;;;;2.30;85.31;101063.38;5041963;28;20222;-73
2022/01/20 05:36:54;;;;;;;2.63;1.17;;;;;;;2.29;84.89;101074.78;5043575;28;20590;-69
2022/01/20 05:39:21;;;;;;;4.90;1.00;;;;;;;2.29;84.90;101075.63;5044691;28;20224;-71
2022/01/20 05:41:49;;;;;;;5.60;1.27;;;;;;;2.27;85.21;101084.47;5038694;28;20241;-70
2022/01/20 05:44:15;;;;;;;12.03;2.23;;;;;;;2.27;84.82;101085.31;5046469;28;20194;-70
2022/01/20 05:46:47;;;;;;;6.33;2.00;;;;;;;2.27;84.33;101101.09;5051974;28;20664;-70
2022/01/20 05:49:20;;;;;;;9.37;1.43;;;;;;;2.28;84.17;101109.84;5048031;28;20655;-70
2022/01/20 05:51:48;;;;;;;4.93;1.50;;;;;;;2.29;84.45;101108.94;5043889;28;20221;-70
2022/01/20 05:54:15;;;;;;;11.70;2.50;;;;;;;2.28;84.19;101099.31;5042991;28;20230;-69
2022/01/20 05:56:43;;;;;;;8.00;1.47;;;;;;;2.28;84.12;101096.69;5043539;28;20216;-69
2022/01/20 05:59:11;;;;;;;7.73;1.40;;;;;;;2.29;84.03;101115.06;5041847;28;20214;-69
2022/01/20 06:01:38;;;;;;;9.23;1.47;;;;;;;2.27;84.29;101126.50;5039400;28;20217;-70
2022/01/20 06:04:08;;;;;;;5.87;1.40;;;;;;;2.29;84.78;101122.09;5037047;28;20209;-71
2022/01/20 06:06:35;;;;;;;6.53;1.30;;;;;;;2.28;84.19;101131.72;5046092;28;20212;-71
2022/01/20 06:09:03;;;;;;;7.47;1.90;;;;;;;2.24;83.78;101145.81;5047215;28;20217;-71
2022/01/20 06:11:30;;;;;;;4.57;1.50;;;;;;;2.18;83.94;101150.34;5046304;28;20245;-70
2022/01/20 06:13:57;;;;;;;4.37;1.63;;;;;;;2.09;83.72;101152.28;5046165;28;20228;-71
2022/01/20 06:16:25;;;;;;;3.37;1.00;;;;;;;1.99;83.76;101169.09;5042337;28;20206;-72
2022/01/20 06:18:51;;;;;;;7.00;1.60;;;;;;;1.88;83.91;101178.09;5042604;28;20203;-71
2022/01/20 06:21:18;;;;;;;8.97;1.73;;;;;;;1.77;83.51;101170.44;5044077;28;20222;-72
2022/01/20 06:23:44;;;;;;;8.83;1.83;;;;;;;1.67;84.16;101168.88;5045660;28;20201;-71
2022/01/20 06:26:11;;;;;;;7.13;1.30;;;;;;;1.60;84.23;101172.50;5041801;28;20201;-72
2022/01/20 06:28:40;;;;;;;5.77;1.40;;;;;;;1.49;84.04;101164.81;5039741;28;20201;-71
2022/01/20 06:31:07;;;;;;;4.17;1.30;;;;;;;1.42;84.49;101173.72;5032272;28;20226;-70
2022/01/20 06:33:34;;;;;;;5.13;1.63;;;;;;;1.34;84.48;101165.09;5039083;28;20213;-69
2022/01/20 06:36:01;;;;;;;5.33;1.20;;;;;;;1.26;84.50;101177.47;5037312;28;20589;-69
2022/01/20 06:38:28;;;;;;;5.23;0.80;;;;;;;1.21;84.47;101195.94;5043149;28;20659;-69
2022/01/20 06:40:54;;;;;;;5.77;1.10;;;;;;;1.16;84.81;101200.38;5042868;28;20229;-70
2022/01/20 06:43:21;;;;;;;2.60;0.90;;;;;;;1.14;84.75;101194.28;5042689;28;20209;-69
2022/01/20 06:45:47;;;;;;;4.97;1.00;;;;;;;1.11;84.95;101204.81;5037144;28;20682;-73
2022/01/20 06:48:14;;;;;;;8.20;1.07;;;;;;;1.11;84.67;101215.31;5042102;28;20201;-71
2022/01/20 06:50:42;;;;;;;3.80;1.37;;;;;;;1.10;85.03;101213.56;5038237;28;20292;-73
2022/01/20 06:53:08;;;;;;;4.90;1.17;;;;;;;1.11;85.42;101215.31;5042613;28;20210;-73
2022/01/20 06:55:35;;;;;;;10.20;2.03;;;;;;;1.12;85.48;101222.28;5039508;28;20236;-73
2022/01/20 06:58:02;;;;;;;6.77;1.70;;;;;;;1.12;85.93;101231.91;5036076;28;20211;-73
2022/01/20 07:00:28;;;;;;;9.50;2.30;;;;;;;1.12;85.40;101245.91;5042516;28;20220;-73
2022/01/20 07:02:55;;;;;;;9.70;1.90;;;;;;;1.13;85.60;101237.13;5037513;28;20237;-72
2022/01/20 07:05:23;;;;;;;9.40;2.60;;;;;;;1.13;85.86;101238.91;5044360;28;20209;-73
2022/01/20 07:07:51;;;;;;;9.00;1.43;;;;;;;1.15;85.82;101247.63;5042982;28;20206;-72
2022/01/20 07:10:19;;;;;;;5.60;1.57;;;;;;;1.16;85.35;101250.22;5033761;28;20202;-72
2022/01/20 07:12:47;;;;;;;16.37;3.40;;;;;;;1.14;85.19;101267.72;5045831;28;20578;-72
2022/01/20 07:15:16;;;;;;;7.37;1.50;;;;;;;1.15;85.16;101269.47;5045328;28;20225;-73
2022/01/20 07:17:43;;;;;;;7.40;1.50;;;;;;;1.16;85.20;101268.59;5047696;28;20213;-73
2022/01/20 07:20:11;;;;;;;14.13;1.93;;;;;;;1.17;84.92;101266.81;5039857;28;20697;-72
2022/01/20 07:22:38;;;;;;;11.07;1.80;;;;;;;1.15;84.93;101272.09;5036281;28;20226;-72
2022/01/20 07:25:06;;;;;;;10.17;1.77;;;;;;;1.17;84.59;101278.19;5045610;28;20671;-73
2022/01/20 07:27:33;;;;;;;7.97;1.60;;;;;;;1.18;84.32;101282.53;5049832;28;20698;-72
2022/01/20 07:30:00;;;;;;;8.77;1.60;;;;;;;1.19;84.15;101286.91;5050577;28;20210;-73
2022/01/20 07:32:26;;;;;;;9.37;1.80;;;;;;;1.20;83.95;101283.41;5038520;28;20228;-72
2022/01/20 07:34:53;;;;;;;12.47;1.93;;;;;;;1.22;83.71;101299.13;5040119;28;20230;-73
2022/01/20 07:37:19;;;;;;;10.43;2.00;;;;;;;1.22;83.49;101302.59;5040413;28;20667;-73
2022/01/20 07:39:46;;;;;;;8.30;1.93;;;;;;;1.22;83.66;101297.38;5033765;28;20210;-72
2022/01/20 07:42:14;;;;;;;13.87;2.20;;;;;;;1.25;83.51;101292.06;5041963;28;20726;-72
2022/01/20 07:44:40;;;;;;;11.27;2.50;;;;;;;1.27;83.89;101297.28;5049000;28;20210;-73
2022/01/20 07:47:07;;;;;;;12.20;2.13;;;;;;;1.27;83.11;101303.38;5035162;28;20587;-72
2022/01/20 07:49:33;;;;;;;10.40;1.63;;;;;;;1.29;83.47;101288.50;5047908;28;20220;-73
2022/01/20 07:52:00;;;;;;;12.70;3.13;;;;;;;1.31;83.32;101291.09;5042245;28;20274;-73
2022/01/20 07:54:26;;;;;;;12.60;2.00;;;;;;;1.32;83.00;101293.69;5035990;28;20228;-71
2022/01/20 07:56:53;;;;;;;8.73;1.73;;;;;;;1.32;83.06;101303.31;5039844;28;20213;-72
2022/01/20 07:59:21;;;;;;;14.13;2.67;;;;;;;1.32;82.88;101306.81;5038874;28;20663;-72
2022/01/20 08:01:47;;;;;;;9.67;2.03;;;;;;;1.32;83.38;101308.56;5050069;28;20601;-72
2022/01/20 08:04:14;;;;;;;11.30;2.57;;;;;;;1.29;83.17;101316.47;5035800;28;20209;-72
2022/01/20 08:06:40;;;;;;;9.93;1.97;;;;;;;1.27;82.34;101321.75;5039181;28;20225;-73
2022/01/20 08:09:08;;;;;;;7.40;2.77;;;;;;;1.27;82.48;101327.00;5031858;28;20681;-72
2022/01/20 08:11:35;;;;;;;11.40;1.97;;;;;;;1.26;82.67;101330.50;5030460;28;20238;-72
2022/01/20 08:14:02;;;;;;;9.27;1.77;;;;;;;1.25;82.67;101334.06;5041326;28;20206;-73
2022/01/20 08:16:30;;;;;;;5.70;2.10;;;;;;;1.23;82.44;101340.22;5035328;28;20218;-72
2022/01/20 08:18:56;;;;;;;10.50;1.63;;;;;;;1.21;82.04;101337.59;5033212;28;20209;-72
2022/01/20 08:21:23;;;;;;;10.63;2.13;;;;;;;1.21;81.97;101340.22;5035243;28;20606;-71
2022/01/20 08:23:49;;;;;;;7.40;1.77;;;;;;;1.23;82.43;101351.56;5044921;28;20209;-73
2022/01/20 08:26:16;;;;;;;11.13;2.00;;;;;;;1.25;81.59;101346.31;5038722;28;20593;-72
2022/01/20 08:28:42;;;;;;;11.60;2.47;;;;;;;1.28;81.74;101351.47;5041368;28;20217;-71
2022/01/20 08:31:09;;;;;;;9.10;1.80;;;;;;;1.29;81.83;101356.72;5037976;28;20271;-72
2022/01/20 08:33:37;;;;;;;7.43;1.60;;;;;;;1.32;81.56;101353.19;5039761;28;20212;-72
2022/01/20 08:36:05;;;;;;;9.70;1.83;;;;;;;1.31;80.90;101349.69;5043632;28;20234;-72
2022/01/20 08:38:31;;;;;;;10.17;2.13;;;;;;;1.34;81.42;101348.78;5043197;28;20213;-73
2022/01/20 08:40:58;;;;;;;8.27;1.60;;;;;;;1.35;81.48;101353.16;5049405;28;20225;-72
2022/01/20 08:43:24;;;;;;;7.87;1.67;;;;;;;1.38;81.09;101356.59;5045635;28;20209;-72
2022/01/20 08:45:51;;;;;;;10.57;1.83;;;;;;;1.41;80.95;101349.56;5043394;28;20208;-72
2022/01/20 08:48:18;;;;;;;7.13;1.67;;;;;;;1.42;80.42;101346.06;5046774;28;20570;-72
2022/01/20 08:50:46;;;;;;;7.37;1.40;;;;;;;1.44;80.92;101344.25;5035939;28;20210;-72
2022/01/20 08:53:13;;;;;;;11.77;1.80;;;;;;;1.44;80.88;101339.00;5033149;28;20206;-72
2022/01/20 08:55:40;;;;;;;5.73;1.80;;;;;;;1.47;80.35;101354.72;5034098;28;20228;-72
2022/01/20 08:58:06;;;;;;;8.17;1.70;;;;;;;1.49;80.45;101352.94;5038767;28;20210;-73
2022/01/20 09:00:36;;;;;;;7.53;2.10;;;;;;;1.48;80.10;101351.19;5033694;28;20206;-71
2022/01/20 09:03:03;;;;;;;10.03;1.63;;;;;;;1.49;80.52;101347.69;5031313;28;20234;-72
2022/01/20 09:05:30;;;;;;;12.33;2.97;;;;;;;1.50;80.13;101350.28;5035600;28;20213;-71
2022/01/20 09:07:58;;;;;;;10.83;2.63;;;;;;;1.51;80.05;101354.66;5039426;28;20229;-72
2022/01/20 09:10:24;;;;;;;13.50;1.73;;;;;;;1.52;79.50;101353.75;5033998;28;20213;-72
2022/01/20 09:15:38;;;;;;;9.80;2.10;;;;;;;1.57;79.37;101364.22;5035438;28;20783;-73
2022/01/20 09:18:07;;;;;;;5.23;1.40;;;;;;;1.57;79.50;101358.94;5033213;28;20657;-72
2022/01/20 09:20:34;;;;;;;8.07;1.50;;;;;;;1.57;79.36;101351.94;5045274;28;20296;-73
2022/01/20 09:23:03;;;;;;;9.00;2.07;;;;;;;1.56;79.32;101349.34;5047784;28;20213;-72
2022/01/20 09:25:29;;;;;;;9.00;2.30;;;;;;;1.58;79.06;101344.94;5043111;28;20208;-72
2022/01/20 09:27:57;;;;;;;10.17;1.67;;;;;;;1.62;78.81;101341.34;5042053;28;20205;-73
2022/01/20 09:30:25;;;;;;;10.27;1.30;;;;;;;1.64;79.17;101345.69;5036548;28;20682;-72
2022/01/20 09:33:09;;;;;;;9.73;1.67;;;;;;;1.68;78.71;101341.25;5041313;28;20226;-71
2022/01/20 09:35:37;;;;;;;4.43;1.57;;;;;;;1.71;78.88;101360.47;5051449;28;20322;-73
2022/01/20 09:38:06;;;;;;;9.93;2.03;;;;;;;1.71;78.79;101370.09;5049720;28;20205;-72
2022/01/20 09:40:34;;;;;;;5.13;1.50;;;;;;;1.77;78.06;101377.03;5041053;28;20202;-72
2022/01/20 09:43:01;;;;;;;7.93;1.47;;;;;;;1.82;78.78;101373.41;5046765;28;20643;-74
2022/01/20 09:45:28;;;;;;;7.47;2.07;;;;;;;1.85;78.60;101365.50;5037128;28;20690;-74
2022/01/20 09:47:55;;;;;;;7.23;1.80;;;;;;;1.89;77.51;101377.69;5042573;28;20232;-74
2022/01/20 09:50:24;;;;;;;6.30;1.80;;;;;;;1.90;77.64;101368.91;5041539;28;20205;-74
2022/01/20 09:52:52;;;;;;;7.60;1.93;;;;;;;1.88;77.55;101375.97;5042151;28;20249;-74
2022/01/20 09:55:20;;;;;;;9.17;1.77;;;;;;;1.90;77.46;101387.31;5033260;28;20240;-74
2022/01/20 09:57:47;;;;;;;8.80;1.83;;;;;;;1.87;76.52;101381.22;5041512;28;20210;-74
2022/01/20 10:00:16;;;;;;;8.77;2.00;;;;;;;1.86;77.33;101404.00;5046610;28;20210;-73
2022/01/20 10:02:59;;;;;;;7.57;1.40;;;;;;;1.84;76.67;101395.28;5034940;28;20225;-73
2022/01/20 10:05:37;;;;;;;9.30;1.90;;;;;;;1.81;77.43;101390.06;5050377;28;20239;-73
2022/01/20 10:08:08;;;;;;;6.90;1.47;;;;;;;1.82;77.32;101389.19;5049249;28;20201;-73
2022/01/20 10:10:45;;;;;;;9.27;1.90;;;;;;;1.82;77.57;101390.94;5037565;28;20210;-73
2022/01/20 10:13:12;;;;;;;6.90;1.40;;;;;;;1.79;77.45;101384.00;5034210;28;20615;-72
2022/01/20 10:15:39;;;;;;;9.17;2.00;;;;;;;1.80;77.62;101384.84;5046860;28;20268;-72
2022/01/20 10:18:08;;;;;;;15.03;2.67;;;;;;;1.81;78.04;101382.19;5041517;28;20202;-71
2022/01/20 10:20:35;;;;;;;13.67;4.30;;;;;;;1.84;77.67;101376.03;5043299;28;20696;-71
2022/01/20 10:23:02;;;;;;;16.60;4.40;;;;;;;1.84;77.96;101397.03;5050818;28;20220;-72
2022/01/20 10:25:34;;;;;;;8.50;2.97;;;;;;;1.84;77.85;101387.41;5047992;28;20206;-71
2022/01/20 10:28:03;;;;;;;8.63;1.83;;;;;;;1.85;77.62;101397.00;5040733;28;20210;-71
2022/01/20 10:30:33;;;;;;;6.43;2.13;;;;;;;1.87;77.80;101403.13;5048721;28;20213;-71
2022/01/20 10:33:01;;;;;;;9.50;6.00;;;;;;;1.85;77.08;101399.63;5047635;28;20213;-71
2022/01/20 10:35:33;;;;;;;12.20;4.40;;;;;;;1.86;77.10;101390.88;5050849;28;20225;-71
2022/01/20 10:38:10;;;;;;;15.63;2.87;;;;;;;1.86;77.74;101388.25;5049018;28;20289;-71
2022/01/20 10:40:47;;;;;;;8.63;3.70;;;;;;;1.88;77.66;101404.84;5051272;28;20286;-71
2022/01/20 10:43:21;;;;;;;13.87;4.30;;;;;;;1.89;76.85;101395.22;5040024;28;20209;-71
2022/01/20 10:45:48;;;;;;;9.20;1.97;;;;;;;1.89;77.52;101406.59;5049694;28;20209;-71
2022/01/20 10:48:18;;;;;;;13.93;3.60;;;;;;;1.88;77.33;101396.97;5046561;28;20214;-70
2022/01/20 10:50:45;;;;;;;9.47;3.27;;;;;;;1.87;77.57;101392.59;5041670;28;20208;-73
2022/01/20 10:53:19;;;;;;;9.10;2.83;;;;;;;1.86;77.59;101396.13;5051368;28;20214;-70
2022/01/20 10:55:46;;;;;;;10.17;2.33;;;;;;;1.90;77.62;101391.69;5050053;28;20225;-71
2022/01/20 10:58:15;;;;;;;10.97;1.93;;;;;;;1.92;77.26;101388.16;5039339;28;20202;-70
2022/01/20 11:00:46;;;;;;;12.20;2.40;;;;;;;1.94;77.09;101393.38;5040227;28;20217;-71
2022/01/20 11:03:13;;;;;;;11.40;2.63;;;;;;;2.00;77.48;101388.88;5040731;28;20209;-71
2022/01/20 11:05:40;;;;;;;9.23;2.70;;;;;;;2.07;77.55;101377.38;5049188;28;20611;-70
2022/01/20 11:08:07;;;;;;;10.33;2.60;;;;;;;2.13;78.00;101405.34;5040685;28;20300;-71
2022/01/20 11:10:34;;;;;;;8.73;1.80;;;;;;;2.18;77.49;101413.13;5043073;28;20205;-70
2022/01/20 11:13:01;;;;;;;15.00;2.67;;;;;;;2.20;77.46;101412.19;5045504;28;20225;-70
2022/01/20 11:15:29;;;;;;;8.40;2.03;;;;;;;2.21;77.19;101413.06;5044811;28;20229;-71
2022/01/20 11:17:58;;;;;;;5.07;1.67;;;;;;;2.22;76.92;101410.41;5043982;28;20228;-70
2022/01/20 11:20:27;;;;;;;11.53;2.13;;;;;;;2.22;76.99;101414.81;5039955;28;20205;-70
2022/01/20 11:22:55;;;;;;;11.93;4.90;;;;;;;2.21;77.73;101408.69;5039577;28;20221;-70
2022/01/20 11:25:24;;;;;;;6.73;2.03;;;;;;;2.20;77.50;101406.94;5047477;28;20198;-70
2022/01/20 11:28:01;;;;;;;9.20;3.03;;;;;;;2.17;77.39;101404.38;5051204;28;20211;-71
2022/01/20 11:30:29;;;;;;;14.43;5.70;;;;;;;2.14;77.49;101407.06;5042122;28;20682;-71
2022/01/20 11:33:02;;;;;;;8.73;2.03;;;;;;;2.11;78.52;101416.75;5044937;28;20598;-71
2022/01/20 11:35:43;;;;;;;9.07;2.90;;;;;;;2.02;79.28;101404.63;5044522;28;20229;-72
2022/01/20 11:38:12;;;;;;;12.03;2.80;;;;;;;1.97;79.40;101407.31;5032566;28;20306;-71
2022/01/20 11:40:51;;;;;;;10.60;2.67;;;;;;;1.91;78.98;101402.19;5034425;28;20206;-71
2022/01/20 11:43:18;;;;;;;8.13;1.73;;;;;;;1.86;79.60;101398.75;5049213;28;20209;-71
2022/01/20 11:45:49;;;;;;;6.40;1.80;;;;;;;1.82;80.01;101399.69;5048098;28;20205;-70
2022/01/20 11:48:19;;;;;;;7.07;2.27;;;;;;;1.80;80.35;101390.94;5048016;28;20210;-71
2022/01/20 11:50:47;;;;;;;8.87;2.10;;;;;;;1.77;80.44;101388.41;5044749;28;20213;-71
2022/01/20 11:53:16;;;;;;;8.90;2.93;;;;;;;1.72;81.13;101387.59;5038816;28;20214;-71
2022/01/20 11:55:44;;;;;;;8.17;2.97;;;;;;;1.70;81.94;101392.00;5031326;28;20245;-71
2022/01/20 11:58:11;;;;;;;8.23;3.83;;;;;;;1.69;82.16;101388.50;5043426;28;20675;-71
2022/01/20 12:00:38;;;;;;;8.60;2.87;;;;;;;1.67;81.95;101373.66;5043852;28;20237;-71
2022/01/20 12:03:11;;;;;;;10.43;2.30;;;;;;;1.69;82.27;101374.50;5036969;28;20206;-70
2022/01/20 12:05:39;;;;;;;10.20;2.70;;;;;;;1.72;82.46;101379.72;5037705;28;20210;-71
2022/01/20 12:08:10;;;;;;;9.43;2.40;;;;;;;1.76;82.89;101368.28;5045292;28;20216;-71
2022/01/20 12:10:37;;;;;;;10.67;3.20;;;;;;;1.83;83.79;101350.66;5029998;28;20608;-72
2022/01/20 12:13:08;;;;;;;12.73;4.00;;;;;;;1.85;83.80;101333.97;5032914;28;20221;-71
2022/01/20 12:15:35;;;;;;;11.23;2.30;;;;;;;1.87;83.68;101355.84;5033650;28;20234;-70
2022/01/20 12:18:01;;;;;;;11.73;3.27;;;;;;;1.90;84.25;101350.53;5029261;28;20213;-70
2022/01/20 12:20:28;;;;;;;13.70;5.27;;;;;;;1.95;84.70;101350.47;5042241;28;20216;-70
2022/01/20 12:22:56;;;;;;;11.13;4.67;;;;;;;1.99;84.49;101345.13;5039068;28;20232;-72
2022/01/20 12:25:26;;;;;;;11.33;2.70;;;;;;;2.02;85.24;101336.31;5041435;28;20208;-70
2022/01/20 12:28:01;;;;;;;7.63;1.87;;;;;;;2.02;84.62;101333.69;5050089;28;20200;-70
2022/01/20 12:30:28;;;;;;;7.30;2.40;;;;;;;2.00;84.56;101336.34;5042525;28;20210;-70
2022/01/20 12:33:02;;;;;;;8.17;3.50;;;;;;;2.04;84.93;101332.78;5049228;28;20233;-70
2022/01/20 12:35:38;;;;;;;8.33;2.20;;;;;;;2.08;84.48;101344.97;5041080;28;20298;-70
2022/01/20 12:38:17;;;;;;;9.47;2.07;;;;;;;2.09;83.23;101345.84;5041637;28;20217;-71
2022/01/20 12:40:46;;;;;;;8.50;3.37;;;;;;;2.13;83.04;101342.28;5046864;28;20203;-70
2022/01/20 12:43:13;;;;;;;6.17;2.13;;;;;;;2.16;82.68;101346.56;5048522;28;20213;-70
2022/01/20 12:45:56;;;;;;;6.07;2.07;;;;;;;2.20;82.16;101341.25;5043070;28;20226;-70
2022/01/20 12:48:22;;;;;;;8.17;1.87;;;;;;;2.26;81.90;101335.88;5044607;28;20573;-70